Terminal Aerodrome Forecast
Issued by NWS

Current Version | Previous Version | Graphics & Text | Print | Product List | Glossary On
Versions: 1 2 3 4 5 6 7 8 9 10 11 12 13 14 15 16 17 18 19
000
FTUS41 KPBZ 252100 AAA
TAFMGW
TAF AMD
KMGW 252158Z 2522/2618 27008KT P6SM BKN200
     FM260800 36005KT P6SM -RASN OVC050
     FM261000 03005KT 3SM -SN BR OVC015
     FM261200 03005KT 1SM -SN BR OVC010=

USA.gov is the U.S. government's official web portal to all federal, state and local government web resources and services.